sensor_id;sensor_type;location;lat;lon;timestamp;temperature;humidity
66128;DHT22;52925;52.436;-1.952;2022-08-25T00:00:40;21.30;72.90
66128;DHT22;52925;52.436;-1.952;2022-08-25T00:02:04;21.40;72.90
66128;DHT22;52925;52.436;-1.952;2022-08-25T00:03:24;21.30;72.80
66128;DHT22;52925;52.436;-1.952;2022-08-25T00:04:45;21.30;72.80
66128;DHT22;52925;52.436;-1.952;2022-08-25T00:06:07;21.30;72.70
66128;DHT22;52925;52.436;-1.952;2022-08-25T00:07:27;21.30;72.80
66128;DHT22;52925;52.436;-1.952;2022-08-25T00:08:48;21.30;72.70
66128;DHT22;52925;52.436;-1.952;2022-08-25T00:10:09;21.30;72.70
66128;DHT22;52925;52.436;-1.952;2022-08-25T00:11:32;21.30;72.70
66128;DHT22;52925;52.436;-1.952;2022-08-25T00:12:53;21.30;72.70
66128;DHT22;52925;52.436;-1.952;2022-08-25T00:14:17;21.30;72.70
66128;DHT22;52925;52.436;-1.952;2022-08-25T00:15:38;21.30;72.70
66128;DHT22;52925;52.436;-1.952;2022-08-25T00:17:00;21.30;72.70
66128;DHT22;52925;52.436;-1.952;2022-08-25T00:18:21;21.30;72.70
66128;DHT22;52925;52.436;-1.952;2022-08-25T00:19:41;21.30;72.60
66128;DHT22;52925;52.436;-1.952;2022-08-25T00:21:02;21.30;72.60
66128;DHT22;52925;52.436;-1.952;2022-08-25T00:22:22;21.30;72.60
66128;DHT22;52925;52.436;-1.952;2022-08-25T00:23:43;21.30;72.70
66128;DHT22;52925;52.436;-1.952;2022-08-25T00:25:04;21.30;72.70
66128;DHT22;52925;52.436;-1.952;2022-08-25T00:26:25;21.30;72.70
66128;DHT22;52925;52.436;-1.952;2022-08-25T00:27:47;21.30;72.70
66128;DHT22;52925;52.436;-1.952;2022-08-25T00:29:09;21.30;73.30
66128;DHT22;52925;52.436;-1.952;2022-08-25T00:30:28;21.30;72.60
66128;DHT22;52925;52.436;-1.952;2022-08-25T00:31:49;21.30;72.70
66128;DHT22;52925;52.436;-1.952;2022-08-25T00:33:10;21.30;72.60
66128;DHT22;52925;52.436;-1.952;2022-08-25T00:34:33;21.20;72.50
66128;DHT22;52925;52.436;-1.952;2022-08-25T00:35:54;21.20;72.50
66128;DHT22;52925;52.436;-1.952;2022-08-25T00:37:14;21.30;72.60
66128;DHT22;52925;52.436;-1.952;2022-08-25T00:38:35;21.20;72.60
66128;DHT22;52925;52.436;-1.952;2022-08-25T00:39:56;21.20;72.60
66128;DHT22;52925;52.436;-1.952;2022-08-25T00:41:20;21.30;72.60
66128;DHT22;52925;52.436;-1.952;2022-08-25T00:42:41;21.20;72.60
66128;DHT22;52925;52.436;-1.952;2022-08-25T00:44:05;21.20;72.50
66128;DHT22;52925;52.436;-1.952;2022-08-25T00:45:26;21.20;72.50
66128;DHT22;52925;52.436;-1.952;2022-08-25T00:46:49;21.20;72.50
66128;DHT22;52925;52.436;-1.952;2022-08-25T00:48:10;21.20;72.50
66128;DHT22;52925;52.436;-1.952;2022-08-25T00:49:33;21.20;72.50
66128;DHT22;52925;52.436;-1.952;2022-08-25T00:50:55;21.20;72.40
66128;DHT22;52925;52.436;-1.952;2022-08-25T00:52:17;21.20;72.50
66128;DHT22;52925;52.436;-1.952;2022-08-25T00:53:40;21.20;72.50
66128;DHT22;52925;52.436;-1.952;2022-08-25T00:55:03;21.10;72.40
66128;DHT22;52925;52.436;-1.952;2022-08-25T00:56:26;21.20;72.50
66128;DHT22;52925;52.436;-1.952;2022-08-25T00:57:53;21.10;72.50
66128;DHT22;52925;52.436;-1.952;2022-08-25T00:59:17;21.10;72.50
66128;DHT22;52925;52.436;-1.952;2022-08-25T01:00:40;21.10;72.50
66128;DHT22;52925;52.436;-1.952;2022-08-25T01:02:03;21.10;72.50
66128;DHT22;52925;52.436;-1.952;2022-08-25T01:03:26;21.10;72.40
66128;DHT22;52925;52.436;-1.952;2022-08-25T01:04:46;21.10;72.50
66128;DHT22;52925;52.436;-1.952;2022-08-25T01:06:07;21.10;72.50
66128;DHT22;52925;52.436;-1.952;2022-08-25T01:07:30;21.10;72.50
66128;DHT22;52925;52.436;-1.952;2022-08-25T01:08:52;21.10;73.10
66128;DHT22;52925;52.436;-1.952;2022-08-25T01:10:13;21.10;72.40
66128;DHT22;52925;52.436;-1.952;2022-08-25T01:11:34;21.10;72.40
66128;DHT22;52925;52.436;-1.952;2022-08-25T01:13:00;21.10;72.40
66128;DHT22;52925;52.436;-1.952;2022-08-25T01:14:23;21.10;72.30
66128;DHT22;52925;52.436;-1.952;2022-08-25T01:15:44;21.10;72.30
66128;DHT22;52925;52.436;-1.952;2022-08-25T01:17:04;21.10;72.30
66128;DHT22;52925;52.436;-1.952;2022-08-25T01:18:26;21.10;72.30
66128;DHT22;52925;52.436;-1.952;2022-08-25T01:19:46;21.10;72.40
66128;DHT22;52925;52.436;-1.952;2022-08-25T01:21:08;21.10;72.30
66128;DHT22;52925;52.436;-1.952;2022-08-25T01:22:28;21.10;72.30
66128;DHT22;52925;52.436;-1.952;2022-08-25T01:23:50;21.10;72.30
66128;DHT22;52925;52.436;-1.952;2022-08-25T01:25:21;21.10;72.20
66128;DHT22;52925;52.436;-1.952;2022-08-25T01:26:43;21.10;72.30
66128;DHT22;52925;52.436;-1.952;2022-08-25T01:28:03;21.00;72.20
66128;DHT22;52925;52.436;-1.952;2022-08-25T01:29:24;21.00;72.30
66128;DHT22;52925;52.436;-1.952;2022-08-25T01:30:44;21.00;72.20
66128;DHT22;52925;52.436;-1.952;2022-08-25T01:32:08;21.00;72.30
66128;DHT22;52925;52.436;-1.952;2022-08-25T01:33:30;21.00;72.30
66128;DHT22;52925;52.436;-1.952;2022-08-25T01:34:50;21.00;72.30
66128;DHT22;52925;52.436;-1.952;2022-08-25T01:36:16;21.00;72.30
66128;DHT22;52925;52.436;-1.952;2022-08-25T01:37:37;21.00;72.30
66128;DHT22;52925;52.436;-1.952;2022-08-25T01:38:58;21.00;72.30
66128;DHT22;52925;52.436;-1.952;2022-08-25T01:40:19;21.00;72.30
66128;DHT22;52925;52.436;-1.952;2022-08-25T01:41:53;21.00;72.30
66128;DHT22;52925;52.436;-1.952;2022-08-25T01:43:25;21.00;72.30
66128;DHT22;52925;52.436;-1.952;2022-08-25T01:44:49;21.00;72.20
66128;DHT22;52925;52.436;-1.952;2022-08-25T01:46:09;21.00;72.30
66128;DHT22;52925;52.436;-1.952;2022-08-25T01:47:31;21.00;72.20
66128;DHT22;52925;52.436;-1.952;2022-08-25T01:48:51;21.00;72.10
66128;DHT22;52925;52.436;-1.952;2022-08-25T01:50:12;21.00;72.10
66128;DHT22;52925;52.436;-1.952;2022-08-25T01:51:41;21.00;72.20
66128;DHT22;52925;52.436;-1.952;2022-08-25T01:53:06;21.00;72.10
66128;DHT22;52925;52.436;-1.952;2022-08-25T01:54:27;21.00;72.10
66128;DHT22;52925;52.436;-1.952;2022-08-25T01:55:48;21.00;72.10
66128;DHT22;52925;52.436;-1.952;2022-08-25T01:57:11;21.00;72.10
66128;DHT22;52925;52.436;-1.952;2022-08-25T01:58:34;21.00;72.10
66128;DHT22;52925;52.436;-1.952;2022-08-25T01:59:56;21.00;72.10
66128;DHT22;52925;52.436;-1.952;2022-08-25T02:01:19;20.90;72.00
66128;DHT22;52925;52.436;-1.952;2022-08-25T02:02:39;21.00;72.10
66128;DHT22;52925;52.436;-1.952;2022-08-25T02:04:00;21.00;72.00
66128;DHT22;52925;52.436;-1.952;2022-08-25T02:05:22;20.90;71.90
66128;DHT22;52925;52.436;-1.952;2022-08-25T02:06:43;20.90;72.00
66128;DHT22;52925;52.436;-1.952;2022-08-25T02:08:04;21.00;71.90
66128;DHT22;52925;52.436;-1.952;2022-08-25T02:09:24;21.00;71.80
66128;DHT22;52925;52.436;-1.952;2022-08-25T02:10:45;21.00;71.80
66128;DHT22;52925;52.436;-1.952;2022-08-25T02:12:05;21.00;71.60
66128;DHT22;52925;52.436;-1.952;2022-08-25T02:13:27;21.00;71.50
66128;DHT22;52925;52.436;-1.952;2022-08-25T02:14:47;21.00;71.50
66128;DHT22;52925;52.436;-1.952;2022-08-25T02:16:09;20.90;71.30
66128;DHT22;52925;52.436;-1.952;2022-08-25T02:17:34;20.90;71.40
66128;DHT22;52925;52.436;-1.952;2022-08-25T02:18:55;20.90;71.30
66128;DHT22;52925;52.436;-1.952;2022-08-25T02:20:16;20.90;71.40
66128;DHT22;52925;52.436;-1.952;2022-08-25T02:21:37;20.90;71.40
66128;DHT22;52925;52.436;-1.952;2022-08-25T02:22:59;20.90;72.10
66128;DHT22;52925;52.436;-1.952;2022-08-25T02:24:20;20.90;71.40
66128;DHT22;52925;52.436;-1.952;2022-08-25T02:25:41;20.90;71.40
66128;DHT22;52925;52.436;-1.952;2022-08-25T02:27:00;20.90;71.40
66128;DHT22;52925;52.436;-1.952;2022-08-25T02:28:22;20.80;71.40
66128;DHT22;52925;52.436;-1.952;2022-08-25T02:29:42;20.90;71.50
66128;DHT22;52925;52.436;-1.952;2022-08-25T02:31:04;20.90;71.40
66128;DHT22;52925;52.436;-1.952;2022-08-25T02:32:24;20.80;71.40
66128;DHT22;52925;52.436;-1.952;2022-08-25T02:33:46;20.90;71.40
66128;DHT22;52925;52.436;-1.952;2022-08-25T02:35:08;20.80;71.40
66128;DHT22;52925;52.436;-1.952;2022-08-25T02:36:29;20.80;71.40
66128;DHT22;52925;52.436;-1.952;2022-08-25T02:37:51;20.80;71.40
66128;DHT22;52925;52.436;-1.952;2022-08-25T02:39:12;20.80;71.50
66128;DHT22;52925;52.436;-1.952;2022-08-25T02:40:33;20.80;71.50
66128;DHT22;52925;52.436;-1.952;2022-08-25T02:41:53;20.80;71.50
66128;DHT22;52925;52.436;-1.952;2022-08-25T02:43:14;20.80;71.50
66128;DHT22;52925;52.436;-1.952;2022-08-25T02:44:34;20.80;71.50
66128;DHT22;52925;52.436;-1.952;2022-08-25T02:45:54;20.80;71.50
66128;DHT22;52925;52.436;-1.952;2022-08-25T02:47:15;20.80;71.40
66128;DHT22;52925;52.436;-1.952;2022-08-25T02:48:36;20.80;71.40
66128;DHT22;52925;52.436;-1.952;2022-08-25T02:49:56;20.80;71.40
66128;DHT22;52925;52.436;-1.952;2022-08-25T02:51:18;20.80;71.40
66128;DHT22;52925;52.436;-1.952;2022-08-25T02:52:38;20.80;71.40
66128;DHT22;52925;52.436;-1.952;2022-08-25T02:54:01;20.80;71.40
66128;DHT22;52925;52.436;-1.952;2022-08-25T02:55:23;20.70;71.30
66128;DHT22;52925;52.436;-1.952;2022-08-25T02:56:44;20.80;71.40
66128;DHT22;52925;52.436;-1.952;2022-08-25T02:58:05;20.80;71.50
66128;DHT22;52925;52.436;-1.952;2022-08-25T02:59:25;20.80;71.50
66128;DHT22;52925;52.436;-1.952;2022-08-25T03:00:46;20.80;71.40
66128;DHT22;52925;52.436;-1.952;2022-08-25T03:02:07;20.80;71.50
66128;DHT22;52925;52.436;-1.952;2022-08-25T03:03:28;20.70;71.40
66128;DHT22;52925;52.436;-1.952;2022-08-25T03:04:48;20.80;72.20
66128;DHT22;52925;52.436;-1.952;2022-08-25T03:06:11;20.80;71.50
66128;DHT22;52925;52.436;-1.952;2022-08-25T03:07:33;20.80;71.40
66128;DHT22;52925;52.436;-1.952;2022-08-25T03:08:53;20.80;71.40
66128;DHT22;52925;52.436;-1.952;2022-08-25T03:10:16;20.80;71.40
66128;DHT22;52925;52.436;-1.952;2022-08-25T03:11:38;20.70;71.40
66128;DHT22;52925;52.436;-1.952;2022-08-25T03:12:59;20.80;71.50
66128;DHT22;52925;52.436;-1.952;2022-08-25T03:14:19;20.70;71.50
66128;DHT22;52925;52.436;-1.952;2022-08-25T03:15:40;20.70;71.40
66128;DHT22;52925;52.436;-1.952;2022-08-25T03:17:00;20.70;71.50
66128;DHT22;52925;52.436;-1.952;2022-08-25T03:18:21;20.70;71.50
66128;DHT22;52925;52.436;-1.952;2022-08-25T03:19:42;20.80;71.50
66128;DHT22;52925;52.436;-1.952;2022-08-25T03:21:02;20.70;71.30
66128;DHT22;52925;52.436;-1.952;2022-08-25T03:22:23;20.70;71.30
66128;DHT22;52925;52.436;-1.952;2022-08-25T03:23:44;20.70;71.20
66128;DHT22;52925;52.436;-1.952;2022-08-25T03:25:05;20.70;71.20
66128;DHT22;52925;52.436;-1.952;2022-08-25T03:26:45;20.80;71.20
66128;DHT22;52925;52.436;-1.952;2022-08-25T03:28:14;20.70;71.20
66128;DHT22;52925;52.436;-1.952;2022-08-25T03:29:34;20.70;71.20
66128;DHT22;52925;52.436;-1.952;2022-08-25T03:30:55;20.70;71.30
66128;DHT22;52925;52.436;-1.952;2022-08-25T03:32:15;20.70;71.30
66128;DHT22;52925;52.436;-1.952;2022-08-25T03:33:36;20.70;71.20
66128;DHT22;52925;52.436;-1.952;2022-08-25T03:34:57;20.70;71.30
66128;DHT22;52925;52.436;-1.952;2022-08-25T03:36:19;20.70;71.30
66128;DHT22;52925;52.436;-1.952;2022-08-25T03:37:40;20.70;71.30
66128;DHT22;52925;52.436;-1.952;2022-08-25T03:38:59;20.70;71.30
66128;DHT22;52925;52.436;-1.952;2022-08-25T03:40:20;20.60;71.30
66128;DHT22;52925;52.436;-1.952;2022-08-25T03:41:42;20.60;71.40
66128;DHT22;52925;52.436;-1.952;2022-08-25T03:43:04;20.60;71.40
66128;DHT22;52925;52.436;-1.952;2022-08-25T03:44:25;20.60;71.40
66128;DHT22;52925;52.436;-1.952;2022-08-25T03:45:45;20.60;71.30
66128;DHT22;52925;52.436;-1.952;2022-08-25T03:47:06;20.70;71.30
66128;DHT22;52925;52.436;-1.952;2022-08-25T03:48:26;20.70;71.40
66128;DHT22;52925;52.436;-1.952;2022-08-25T03:49:48;20.60;71.30
66128;DHT22;52925;52.436;-1.952;2022-08-25T03:51:08;20.60;71.30
66128;DHT22;52925;52.436;-1.952;2022-08-25T03:52:29;20.60;71.30
66128;DHT22;52925;52.436;-1.952;2022-08-25T03:53:49;20.60;71.30
66128;DHT22;52925;52.436;-1.952;2022-08-25T03:55:11;20.60;71.30
66128;DHT22;52925;52.436;-1.952;2022-08-25T03:56:33;20.60;71.30
66128;DHT22;52925;52.436;-1.952;2022-08-25T03:57:54;20.60;71.30
66128;DHT22;52925;52.436;-1.952;2022-08-25T03:59:15;20.60;71.30
66128;DHT22;52925;52.436;-1.952;2022-08-25T04:00:36;20.60;71.30
66128;DHT22;52925;52.436;-1.952;2022-08-25T04:01:55;20.60;71.30
66128;DHT22;52925;52.436;-1.952;2022-08-25T04:03:17;20.60;71.30
66128;DHT22;52925;52.436;-1.952;2022-08-25T04:04:36;20.60;71.20
66128;DHT22;52925;52.436;-1.952;2022-08-25T04:06:00;20.60;71.30
66128;DHT22;52925;52.436;-1.952;2022-08-25T04:07:20;20.60;71.30
66128;DHT22;52925;52.436;-1.952;2022-08-25T04:08:41;20.60;71.30
66128;DHT22;52925;52.436;-1.952;2022-08-25T04:10:02;20.60;71.30
66128;DHT22;52925;52.436;-1.952;2022-08-25T04:11:22;20.60;71.30
66128;DHT22;52925;52.436;-1.952;2022-08-25T04:12:43;20.60;71.20
66128;DHT22;52925;52.436;-1.952;2022-08-25T04:14:04;20.60;71.20
66128;DHT22;52925;52.436;-1.952;2022-08-25T04:15:26;20.60;71.20
66128;DHT22;52925;52.436;-1.952;2022-08-25T04:16:45;20.50;71.20
66128;DHT22;52925;52.436;-1.952;2022-08-25T04:18:06;20.60;71.20
66128;DHT22;52925;52.436;-1.952;2022-08-25T04:19:27;20.60;71.20
66128;DHT22;52925;52.436;-1.952;2022-08-25T04:20:47;20.50;71.20
66128;DHT22;52925;52.436;-1.952;2022-08-25T04:22:07;20.60;71.30
66128;DHT22;52925;52.436;-1.952;2022-08-25T04:23:28;20.50;71.30
66128;DHT22;52925;52.436;-1.952;2022-08-25T04:24:49;20.50;71.20
66128;DHT22;52925;52.436;-1.952;2022-08-25T04:26:09;20.50;71.10
66128;DHT22;52925;52.436;-1.952;2022-08-25T04:27:30;20.50;71.20
66128;DHT22;52925;52.436;-1.952;2022-08-25T04:28:51;20.50;71.20
66128;DHT22;52925;52.436;-1.952;2022-08-25T04:30:12;20.50;71.20
66128;DHT22;52925;52.436;-1.952;2022-08-25T04:31:35;20.50;71.20
66128;DHT22;52925;52.436;-1.952;2022-08-25T04:32:55;20.50;71.10
66128;DHT22;52925;52.436;-1.952;2022-08-25T04:34:16;20.50;71.10
66128;DHT22;52925;52.436;-1.952;2022-08-25T04:35:37;20.50;71.10
66128;DHT22;52925;52.436;-1.952;2022-08-25T04:37:00;20.50;71.10
66128;DHT22;52925;52.436;-1.952;2022-08-25T04:38:21;20.50;71.00
66128;DHT22;52925;52.436;-1.952;2022-08-25T04:39:42;20.50;71.00
66128;DHT22;52925;52.436;-1.952;2022-08-25T04:41:04;20.50;71.00
66128;DHT22;52925;52.436;-1.952;2022-08-25T04:42:24;20.50;70.90
66128;DHT22;52925;52.436;-1.952;2022-08-25T04:43:45;20.50;71.00
66128;DHT22;52925;52.436;-1.952;2022-08-25T04:45:06;20.50;70.90
66128;DHT22;52925;52.436;-1.952;2022-08-25T04:46:30;20.50;70.90
66128;DHT22;52925;52.436;-1.952;2022-08-25T04:47:52;20.50;71.00
66128;DHT22;52925;52.436;-1.952;2022-08-25T04:49:15;20.50;71.00
66128;DHT22;52925;52.436;-1.952;2022-08-25T04:50:37;20.50;71.00
66128;DHT22;52925;52.436;-1.952;2022-08-25T04:51:58;20.50;71.00
66128;DHT22;52925;52.436;-1.952;2022-08-25T04:53:19;20.50;71.00
66128;DHT22;52925;52.436;-1.952;2022-08-25T04:54:40;20.50;71.00
66128;DHT22;52925;52.436;-1.952;2022-08-25T04:56:04;20.50;71.00
66128;DHT22;52925;52.436;-1.952;2022-08-25T04:57:24;20.50;71.00
66128;DHT22;52925;52.436;-1.952;2022-08-25T04:58:45;20.50;71.00
66128;DHT22;52925;52.436;-1.952;2022-08-25T05:00:06;20.50;71.00
66128;DHT22;52925;52.436;-1.952;2022-08-25T05:01:27;20.40;71.00
66128;DHT22;52925;52.436;-1.952;2022-08-25T05:02:47;20.40;71.00
66128;DHT22;52925;52.436;-1.952;2022-08-25T05:04:10;20.50;71.00
66128;DHT22;52925;52.436;-1.952;2022-08-25T05:05:34;20.40;71.00
66128;DHT22;52925;52.436;-1.952;2022-08-25T05:06:56;20.40;71.00
66128;DHT22;52925;52.436;-1.952;2022-08-25T05:08:16;20.40;70.90
66128;DHT22;52925;52.436;-1.952;2022-08-25T05:09:36;20.40;71.00
66128;DHT22;52925;52.436;-1.952;2022-08-25T05:10:57;20.40;71.00
66128;DHT22;52925;52.436;-1.952;2022-08-25T05:12:18;20.50;71.10
66128;DHT22;52925;52.436;-1.952;2022-08-25T05:13:39;20.40;71.10
66128;DHT22;52925;52.436;-1.952;2022-08-25T05:14:59;20.40;71.10
66128;DHT22;52925;52.436;-1.952;2022-08-25T05:16:40;20.40;71.10
66128;DHT22;52925;52.436;-1.952;2022-08-25T05:18:00;20.40;71.10
66128;DHT22;52925;52.436;-1.952;2022-08-25T05:19:22;20.40;71.10
66128;DHT22;52925;52.436;-1.952;2022-08-25T05:20:43;20.40;71.20
66128;DHT22;52925;52.436;-1.952;2022-08-25T05:22:03;20.40;71.20
66128;DHT22;52925;52.436;-1.952;2022-08-25T05:23:24;20.40;71.20
66128;DHT22;52925;52.436;-1.952;2022-08-25T05:24:44;20.40;71.20
66128;DHT22;52925;52.436;-1.952;2022-08-25T05:26:07;20.40;71.20
66128;DHT22;52925;52.436;-1.952;2022-08-25T05:27:28;20.40;71.20
66128;DHT22;52925;52.436;-1.952;2022-08-25T05:28:49;20.40;71.20
66128;DHT22;52925;52.436;-1.952;2022-08-25T05:30:10;20.40;71.20
66128;DHT22;52925;52.436;-1.952;2022-08-25T05:31:32;20.40;71.30
66128;DHT22;52925;52.436;-1.952;2022-08-25T05:32:53;20.40;71.20
66128;DHT22;52925;52.436;-1.952;2022-08-25T05:34:14;20.40;71.20
66128;DHT22;52925;52.436;-1.952;2022-08-25T05:35:37;20.40;71.20
66128;DHT22;52925;52.436;-1.952;2022-08-25T05:36:58;20.40;71.20
66128;DHT22;52925;52.436;-1.952;2022-08-25T05:38:21;20.40;71.60
66128;DHT22;52925;52.436;-1.952;2022-08-25T05:39:41;20.40;71.30
66128;DHT22;52925;52.436;-1.952;2022-08-25T05:41:04;20.40;71.30
66128;DHT22;52925;52.436;-1.952;2022-08-25T05:42:26;20.40;71.30
66128;DHT22;52925;52.436;-1.952;2022-08-25T05:43:48;20.40;71.30
66128;DHT22;52925;52.436;-1.952;2022-08-25T05:45:10;20.40;71.40
66128;DHT22;52925;52.436;-1.952;2022-08-25T05:46:30;20.30;71.30
66128;DHT22;52925;52.436;-1.952;2022-08-25T05:47:51;20.40;71.50
66128;DHT22;52925;52.436;-1.952;2022-08-25T05:49:11;20.40;71.50
66128;DHT22;52925;52.436;-1.952;2022-08-25T05:50:31;20.40;71.40
66128;DHT22;52925;52.436;-1.952;2022-08-25T05:51:52;20.40;71.50
66128;DHT22;52925;52.436;-1.952;2022-08-25T05:53:13;20.40;71.50
66128;DHT22;52925;52.436;-1.952;2022-08-25T05:54:33;20.30;71.40
66128;DHT22;52925;52.436;-1.952;2022-08-25T05:55:55;20.40;71.50
66128;DHT22;52925;52.436;-1.952;2022-08-25T05:57:15;20.40;71.50
66128;DHT22;52925;52.436;-1.952;2022-08-25T05:58:37;20.40;71.50
66128;DHT22;52925;52.436;-1.952;2022-08-25T05:59:56;20.40;71.50
66128;DHT22;52925;52.436;-1.952;2022-08-25T06:01:19;20.40;71.50
66128;DHT22;52925;52.436;-1.952;2022-08-25T06:02:58;20.30;71.50
66128;DHT22;52925;52.436;-1.952;2022-08-25T06:04:19;20.40;71.50
66128;DHT22;52925;52.436;-1.952;2022-08-25T06:05:41;20.40;71.60
66128;DHT22;52925;52.436;-1.952;2022-08-25T06:07:03;20.40;71.50
66128;DHT22;52925;52.436;-1.952;2022-08-25T06:08:24;20.40;71.50
66128;DHT22;52925;52.436;-1.952;2022-08-25T06:09:49;20.40;71.60
66128;DHT22;52925;52.436;-1.952;2022-08-25T06:11:10;20.30;71.50
66128;DHT22;52925;52.436;-1.952;2022-08-25T06:12:32;20.40;71.50
66128;DHT22;52925;52.436;-1.952;2022-08-25T06:13:54;20.40;71.60
66128;DHT22;52925;52.436;-1.952;2022-08-25T06:15:17;20.40;71.60
66128;DHT22;52925;52.436;-1.952;2022-08-25T06:16:38;20.30;71.50
66128;DHT22;52925;52.436;-1.952;2022-08-25T06:17:59;20.40;71.50
66128;DHT22;52925;52.436;-1.952;2022-08-25T06:19:22;20.30;71.50
66128;DHT22;52925;52.436;-1.952;2022-08-25T06:20:42;20.40;71.50
66128;DHT22;52925;52.436;-1.952;2022-08-25T06:22:04;20.30;71.50
66128;DHT22;52925;52.436;-1.952;2022-08-25T06:23:25;20.30;71.60
66128;DHT22;52925;52.436;-1.952;2022-08-25T06:24:46;20.30;71.60
66128;DHT22;52925;52.436;-1.952;2022-08-25T06:26:09;20.30;71.50
66128;DHT22;52925;52.436;-1.952;2022-08-25T06:27:29;20.30;71.50
66128;DHT22;52925;52.436;-1.952;2022-08-25T06:28:51;20.30;71.50
66128;DHT22;52925;52.436;-1.952;2022-08-25T06:30:15;20.30;71.50
66128;DHT22;52925;52.436;-1.952;2022-08-25T06:31:35;20.30;71.50
66128;DHT22;52925;52.436;-1.952;2022-08-25T06:32:56;20.30;71.50
66128;DHT22;52925;52.436;-1.952;2022-08-25T06:34:17;20.30;71.50
66128;DHT22;52925;52.436;-1.952;2022-08-25T06:35:40;20.30;71.40
66128;DHT22;52925;52.436;-1.952;2022-08-25T06:37:01;20.30;71.50
66128;DHT22;52925;52.436;-1.952;2022-08-25T06:38:24;20.30;71.50
66128;DHT22;52925;52.436;-1.952;2022-08-25T06:39:45;20.30;71.50
66128;DHT22;52925;52.436;-1.952;2022-08-25T06:41:07;20.30;71.40
66128;DHT22;52925;52.436;-1.952;2022-08-25T06:42:28;20.30;71.40
66128;DHT22;52925;52.436;-1.952;2022-08-25T06:43:50;20.30;71.40
66128;DHT22;52925;52.436;-1.952;2022-08-25T06:45:11;20.30;71.40
66128;DHT22;52925;52.436;-1.952;2022-08-25T06:46:31;20.30;71.40
66128;DHT22;52925;52.436;-1.952;2022-08-25T06:47:52;20.30;71.40
66128;DHT22;52925;52.436;-1.952;2022-08-25T06:49:13;20.30;71.40
66128;DHT22;52925;52.436;-1.952;2022-08-25T06:50:33;20.30;71.40
66128;DHT22;52925;52.436;-1.952;2022-08-25T06:51:54;20.30;71.40
66128;DHT22;52925;52.436;-1.952;2022-08-25T06:53:15;20.30;71.40
66128;DHT22;52925;52.436;-1.952;2022-08-25T06:54:37;20.30;71.40
66128;DHT22;52925;52.436;-1.952;2022-08-25T06:55:58;20.20;71.40
66128;DHT22;52925;52.436;-1.952;2022-08-25T06:57:18;20.20;71.40
66128;DHT22;52925;52.436;-1.952;2022-08-25T06:58:38;20.20;71.30
66128;DHT22;52925;52.436;-1.952;2022-08-25T06:59:59;20.20;71.30
66128;DHT22;52925;52.436;-1.952;2022-08-25T07:01:22;20.20;71.20
66128;DHT22;52925;52.436;-1.952;2022-08-25T07:02:45;20.30;71.30
66128;DHT22;52925;52.436;-1.952;2022-08-25T07:04:06;20.30;71.20
66128;DHT22;52925;52.436;-1.952;2022-08-25T07:05:25;20.30;71.30
66128;DHT22;52925;52.436;-1.952;2022-08-25T07:06:46;20.20;71.20
66128;DHT22;52925;52.436;-1.952;2022-08-25T07:08:07;20.30;71.20
66128;DHT22;52925;52.436;-1.952;2022-08-25T07:09:29;20.20;71.20
66128;DHT22;52925;52.436;-1.952;2022-08-25T07:10:51;20.30;71.20
66128;DHT22;52925;52.436;-1.952;2022-08-25T07:12:12;20.30;71.20
66128;DHT22;52925;52.436;-1.952;2022-08-25T07:13:33;20.30;71.20
66128;DHT22;52925;52.436;-1.952;2022-08-25T07:14:54;20.30;71.10
66128;DHT22;52925;52.436;-1.952;2022-08-25T07:16:16;20.30;71.10
66128;DHT22;52925;52.436;-1.952;2022-08-25T07:17:36;20.20;71.10
66128;DHT22;52925;52.436;-1.952;2022-08-25T07:18:57;20.30;71.10
66128;DHT22;52925;52.436;-1.952;2022-08-25T07:20:18;20.20;71.20
66128;DHT22;52925;52.436;-1.952;2022-08-25T07:21:40;20.20;71.20
66128;DHT22;52925;52.436;-1.952;2022-08-25T07:23:04;20.20;71.20
66128;DHT22;52925;52.436;-1.952;2022-08-25T07:24:25;20.20;71.20
66128;DHT22;52925;52.436;-1.952;2022-08-25T07:25:47;20.20;71.10
66128;DHT22;52925;52.436;-1.952;2022-08-25T07:27:08;20.20;71.10
66128;DHT22;52925;52.436;-1.952;2022-08-25T07:28:33;20.20;71.10
66128;DHT22;52925;52.436;-1.952;2022-08-25T07:29:53;20.20;71.10
66128;DHT22;52925;52.436;-1.952;2022-08-25T07:31:16;20.20;71.10
66128;DHT22;52925;52.436;-1.952;2022-08-25T07:32:37;20.20;71.10
66128;DHT22;52925;52.436;-1.952;2022-08-25T07:33:58;20.30;71.10
66128;DHT22;52925;52.436;-1.952;2022-08-25T07:35:37;20.20;71.10
66128;DHT22;52925;52.436;-1.952;2022-08-25T07:36:57;20.20;71.20
66128;DHT22;52925;52.436;-1.952;2022-08-25T07:38:18;20.20;71.20
66128;DHT22;52925;52.436;-1.952;2022-08-25T07:39:39;20.20;71.10
66128;DHT22;52925;52.436;-1.952;2022-08-25T07:41:02;20.20;71.10
66128;DHT22;52925;52.436;-1.952;2022-08-25T07:42:25;20.20;71.10
66128;DHT22;52925;52.436;-1.952;2022-08-25T07:43:45;20.30;71.10
66128;DHT22;52925;52.436;-1.952;2022-08-25T07:45:07;20.20;71.80
66128;DHT22;52925;52.436;-1.952;2022-08-25T07:46:29;20.20;71.10
66128;DHT22;52925;52.436;-1.952;2022-08-25T07:47:50;20.20;71.10
66128;DHT22;52925;52.436;-1.952;2022-08-25T07:49:12;20.20;71.20
66128;DHT22;52925;52.436;-1.952;2022-08-25T07:50:34;20.20;71.10
66128;DHT22;52925;52.436;-1.952;2022-08-25T07:51:57;20.20;71.20
66128;DHT22;52925;52.436;-1.952;2022-08-25T07:53:17;20.20;71.20
66128;DHT22;52925;52.436;-1.952;2022-08-25T07:54:38;20.20;71.10
66128;DHT22;52925;52.436;-1.952;2022-08-25T07:55:59;20.20;71.10
66128;DHT22;52925;52.436;-1.952;2022-08-25T07:57:20;20.20;71.10
66128;DHT22;52925;52.436;-1.952;2022-08-25T07:58:43;20.20;71.10
66128;DHT22;52925;52.436;-1.952;2022-08-25T08:00:05;20.20;71.10
66128;DHT22;52925;52.436;-1.952;2022-08-25T08:01:30;20.20;71.10
66128;DHT22;52925;52.436;-1.952;2022-08-25T08:02:51;20.20;71.20
66128;DHT22;52925;52.436;-1.952;2022-08-25T08:04:12;20.10;71.20
66128;DHT22;52925;52.436;-1.952;2022-08-25T08:05:32;20.20;71.30
66128;DHT22;52925;52.436;-1.952;2022-08-25T08:06:55;20.10;71.20
66128;DHT22;52925;52.436;-1.952;2022-08-25T08:08:16;20.20;71.20
66128;DHT22;52925;52.436;-1.952;2022-08-25T08:09:37;20.10;71.20
66128;DHT22;52925;52.436;-1.952;2022-08-25T08:10:57;20.10;71.30
66128;DHT22;52925;52.436;-1.952;2022-08-25T08:12:18;20.10;71.20
66128;DHT22;52925;52.436;-1.952;2022-08-25T08:13:39;20.10;71.20
66128;DHT22;52925;52.436;-1.952;2022-08-25T08:15:02;20.20;71.30
66128;DHT22;52925;52.436;-1.952;2022-08-25T08:16:25;20.10;71.20
66128;DHT22;52925;52.436;-1.952;2022-08-25T08:17:46;20.20;71.30
66128;DHT22;52925;52.436;-1.952;2022-08-25T08:19:06;20.20;71.20
66128;DHT22;52925;52.436;-1.952;2022-08-25T08:20:28;20.20;71.20
66128;DHT22;52925;52.436;-1.952;2022-08-25T08:21:49;20.10;71.30
66128;DHT22;52925;52.436;-1.952;2022-08-25T08:23:10;20.10;71.30
66128;DHT22;52925;52.436;-1.952;2022-08-25T08:24:33;20.20;71.30
66128;DHT22;52925;52.436;-1.952;2022-08-25T08:25:57;20.20;72.10
66128;DHT22;52925;52.436;-1.952;2022-08-25T08:27:18;20.10;72.00